Time;durP1;ratioP1;P1;durP2;ratioP2;P2;SDS_P1;SDS_P2;PMS_P1;PMS_P2;Temp;Humidity;BMP_temperature;BMP_pressure;BME280_temperature;BME280_humidity;BME280_pressure;Samples;Min_cycle;Max_cycle;Signal;HPM_P1;HPM_P2
2022/11/17 00:01:08;;;;;;;7.78;1.83;;;9.80;99.90;;;;;;5034284;28;20526;-66
2022/11/17 00:03:34;;;;;;;2.33;1.48;;;9.80;99.90;;;;;;5037409;28;20023;-66
2022/11/17 00:06:03;;;;;;;6.20;1.40;;;9.90;99.90;;;;;;5025363;28;20144;-66
2022/11/17 00:08:32;;;;;;;7.88;1.10;;;9.90;99.90;;;;;;5017186;28;20124;-67
2022/11/17 00:11:03;;;;;;;7.38;1.50;;;9.90;99.90;;;;;;5026623;28;20047;-66
2022/11/17 00:16:17;;;;;;;;;;;9.90;99.90;;;;;;5030910;28;20453;-67
2022/11/17 00:21:28;;;;;;;12.35;1.77;;;9.90;99.90;;;;;;5037828;28;20078;-66
2022/11/17 00:23:55;;;;;;;7.82;1.48;;;9.80;99.90;;;;;;5036105;28;20490;-66
2022/11/17 00:26:22;;;;;;;6.95;1.45;;;9.90;99.90;;;;;;5015799;28;20136;-66
2022/11/17 00:29:06;;;;;;;3.95;1.58;;;9.90;99.90;;;;;;5035348;28;20018;-67
2022/11/17 00:34:19;;;;;;;6.45;1.25;;;9.90;99.90;;;;;;5026609;28;20082;-66
2022/11/17 00:36:50;;;;;;;3.60;1.70;;;9.90;99.90;;;;;;5045823;28;20110;-66
2022/11/17 00:39:17;;;;;;;3.90;1.15;;;10.00;99.90;;;;;;5034270;28;20072;-66
2022/11/17 00:41:43;;;;;;;3.95;1.08;;;10.00;99.90;;;;;;5050015;28;20032;-66
2022/11/17 00:44:09;;;;;;;4.47;1.08;;;10.00;99.90;;;;;;5037988;28;20034;-66
2022/11/17 00:46:36;;;;;;;5.38;1.27;;;10.10;99.90;;;;;;5033838;28;20038;-66
2022/11/17 00:49:03;;;;;;;5.47;1.33;;;10.10;99.90;;;;;;5031443;28;20017;-67
2022/11/17 00:51:29;;;;;;;3.80;1.10;;;10.20;99.90;;;;;;5029882;28;20595;-66
2022/11/17 00:53:55;;;;;;;4.25;1.08;;;10.20;99.90;;;;;;5033147;28;20620;-66
2022/11/17 00:56:21;;;;;;;3.30;2.08;;;10.20;99.90;;;;;;5036691;28;20049;-65
2022/11/17 00:58:46;;;;;;;3.15;1.23;;;10.20;99.90;;;;;;5038820;28;20048;-66
2022/11/17 01:01:13;;;;;;;5.03;1.52;;;10.20;99.90;;;;;;5029757;28;20030;-67
2022/11/17 01:03:38;;;;;;;3.85;2.08;;;10.20;99.90;;;;;;5028460;28;20380;-67
2022/11/17 01:06:10;;;;;;;5.95;1.70;;;10.20;99.90;;;;;;5022037;28;20071;-67
2022/11/17 01:08:36;;;;;;;2.67;1.17;;;10.20;99.90;;;;;;5031410;28;20029;-66
2022/11/17 01:11:16;;;;;;;2.72;1.48;;;10.20;99.90;;;;;;5031455;28;20395;-67
2022/11/17 01:13:43;;;;;;;2.67;1.00;;;10.20;99.90;;;;;;5023052;28;20112;-66
2022/11/17 01:16:15;;;;;;;3.60;1.48;;;10.20;99.90;;;;;;5030934;28;20026;-67
2022/11/17 01:18:42;;;;;;;2.25;1.25;;;10.20;99.90;;;;;;5037859;28;20021;-66
2022/11/17 01:21:17;;;;;;;2.20;1.10;;;10.20;99.90;;;;;;5038021;28;20421;-66
2022/11/17 01:23:44;;;;;;;4.90;1.27;;;10.20;99.90;;;;;;5015227;28;20022;-66
2022/11/17 01:26:12;;;;;;;2.15;1.17;;;10.20;99.90;;;;;;5007170;28;20029;-66
2022/11/17 01:28:38;;;;;;;9.70;1.83;;;10.20;99.90;;;;;;5024765;28;20467;-67
2022/11/17 01:31:10;;;;;;;4.75;1.05;;;10.20;99.90;;;;;;5026846;28;20038;-66
2022/11/17 01:33:36;;;;;;;5.53;1.17;;;10.10;99.90;;;;;;5024040;28;20442;-67
2022/11/17 01:36:03;;;;;;;7.47;1.52;;;10.20;99.90;;;;;;5025204;28;20035;-67
2022/11/17 01:38:29;;;;;;;6.32;1.42;;;10.20;99.90;;;;;;5031138;28;20055;-66
2022/11/17 01:41:04;;;;;;;3.90;1.00;;;10.20;99.90;;;;;;5026541;28;20021;-66
2022/11/17 01:43:43;;;;;;;4.95;1.00;;;10.20;99.90;;;;;;5026149;28;20025;-66
2022/11/17 01:46:25;;;;;;;9.68;1.13;;;10.10;99.90;;;;;;5035175;28;20028;-66
2022/11/17 01:48:53;;;;;;;2.53;1.00;;;10.10;99.90;;;;;;5025481;28;20013;-66
2022/11/17 01:51:19;;;;;;;5.15;1.20;;;10.00;99.90;;;;;;5033239;28;20025;-66
2022/11/17 01:53:49;;;;;;;1.77;1.10;;;10.00;99.90;;;;;;5016695;28;20026;-65
2022/11/17 01:56:19;;;;;;;1.23;0.93;;;10.00;99.90;;;;;;5035504;28;20040;-66
2022/11/17 01:58:57;;;;;;;3.85;0.98;;;10.00;99.90;;;;;;5027515;28;20025;-66
2022/11/17 02:01:22;;;;;;;3.00;1.27;;;10.00;99.90;;;;;;5031542;28;20467;-67
2022/11/17 02:03:49;;;;;;;6.75;1.50;;;9.90;99.90;;;;;;5016312;28;20030;-67
2022/11/17 02:06:28;;;;;;;2.25;1.13;;;9.90;99.90;;;;;;5031502;28;20021;-67
2022/11/17 02:08:55;;;;;;;4.75;1.80;;;9.90;99.90;;;;;;5032522;28;20033;-67
2022/11/17 02:11:22;;;;;;;4.10;1.20;;;9.90;99.90;;;;;;5044243;28;20025;-66
2022/11/17 02:13:50;;;;;;;10.57;1.70;;;9.90;99.90;;;;;;5030413;28;20035;-66
2022/11/17 02:16:16;;;;;;;3.05;1.25;;;9.90;99.90;;;;;;5013370;28;20017;-66
2022/11/17 02:18:44;;;;;;;3.95;1.40;;;9.90;99.90;;;;;;5023616;28;20055;-67
2022/11/17 02:21:10;;;;;;;5.13;1.13;;;9.90;99.90;;;;;;5026827;28;20962;-66
2022/11/17 02:23:54;;;;;;;4.15;1.00;;;9.90;99.90;;;;;;5043812;28;20093;-66
2022/11/17 02:26:51;;;;;;;2.90;1.73;;;9.90;99.90;;;;;;5017014;28;20033;-67
2022/11/17 02:29:34;;;;;;;3.83;1.17;;;9.90;99.90;;;;;;5028885;28;20410;-66
2022/11/17 02:32:14;;;;;;;4.15;1.50;;;9.90;99.90;;;;;;5024837;28;20033;-66
2022/11/17 02:34:47;;;;;;;5.25;1.35;;;9.90;99.90;;;;;;5024407;28;20104;-66
2022/11/17 02:37:50;;;;;;;4.57;1.73;;;9.90;99.90;;;;;;5034328;28;20033;-66
2022/11/17 02:40:25;;;;;;;2.00;0.93;;;9.90;99.90;;;;;;5022250;28;20104;-65
2022/11/17 02:45:55;;;;;;;3.42;1.15;;;9.90;99.90;;;;;;5012661;28;20092;-66
2022/11/17 02:48:56;;;;;;;2.40;1.10;;;9.90;99.90;;;;;;5016957;28;20380;-66
2022/11/17 02:51:23;;;;;;;5.13;1.30;;;9.90;99.90;;;;;;5006894;28;20041;-66
2022/11/17 02:53:52;;;;;;;4.93;1.58;;;9.90;99.90;;;;;;5021566;28;20025;-67
2022/11/17 02:56:17;;;;;;;6.32;2.33;;;9.90;99.90;;;;;;5031459;28;20056;-66
2022/11/17 02:58:44;;;;;;;3.15;1.58;;;9.90;99.90;;;;;;5017533;28;20013;-66
2022/11/17 03:01:32;;;;;;;6.10;1.42;;;9.80;99.90;;;;;;5015468;28;20041;-66
2022/11/17 03:04:16;;;;;;;6.25;2.00;;;9.80;99.90;;;;;;5016260;28;20179;-66
2022/11/17 03:06:51;;;;;;;4.63;1.40;;;9.80;99.90;;;;;;5019177;28;20360;-67
2022/11/17 03:09:38;;;;;;;1.20;1.10;;;9.90;99.90;;;;;;5019336;28;20021;-66
2022/11/17 03:12:36;;;;;;;2.75;1.42;;;9.90;99.90;;;;;;5014989;28;20022;-66
2022/11/17 03:15:11;;;;;;;4.65;1.45;;;9.90;99.90;;;;;;5021031;28;20029;-66
2022/11/17 03:17:57;;;;;;;2.80;1.55;;;9.90;99.90;;;;;;5039367;28;20025;-66
2022/11/17 03:20:30;;;;;;;3.25;2.03;;;9.90;99.90;;;;;;5042847;28;20029;-66
2022/11/17 03:23:04;;;;;;;3.03;1.13;;;9.90;99.90;;;;;;5028179;28;20071;-66
2022/11/17 03:25:33;;;;;;;3.13;1.73;;;9.90;99.90;;;;;;5025602;28;20072;-66
2022/11/17 03:28:05;;;;;;;2.67;1.20;;;9.90;99.90;;;;;;5021990;28;20117;-66
2022/11/17 03:30:33;;;;;;;2.53;1.00;;;9.90;99.90;;;;;;5042492;28;20025;-66
2022/11/17 03:33:06;;;;;;;2.85;0.80;;;9.90;99.90;;;;;;5036126;28;20029;-66
2022/11/17 03:35:34;;;;;;;2.22;1.38;;;9.90;99.90;;;;;;5036889;28;20030;-66
2022/11/17 03:38:07;;;;;;;3.83;1.45;;;9.90;99.90;;;;;;5034700;28;20026;-66
2022/11/17 03:40:34;;;;;;;4.93;1.20;;;9.90;99.90;;;;;;5029736;28;20098;-67
2022/11/17 03:43:04;;;;;;;4.18;1.45;;;9.90;99.90;;;;;;5028574;28;20033;-66
2022/11/17 03:45:37;;;;;;;3.28;1.20;;;9.90;99.90;;;;;;5029399;28;20084;-66
2022/11/17 03:48:11;;;;;;;3.70;1.65;;;10.00;99.90;;;;;;5036524;28;20267;-66
2022/11/17 03:50:42;;;;;;;4.00;1.25;;;10.00;99.90;;;;;;5039051;28;20037;-67
2022/11/17 03:53:08;;;;;;;5.30;1.20;;;9.90;99.90;;;;;;5037433;28;20025;-66
2022/11/17 03:55:58;;;;;;;5.05;1.20;;;10.00;99.90;;;;;;5043119;28;20556;-67
2022/11/17 03:58:30;;;;;;;3.08;1.13;;;9.90;99.90;;;;;;5034803;28;20044;-67
2022/11/17 04:00:58;;;;;;;3.65;1.30;;;10.00;99.90;;;;;;5033679;28;20029;-66
2022/11/17 04:03:29;;;;;;;6.35;1.50;;;9.90;99.90;;;;;;5053961;28;20052;-66
2022/11/17 04:05:55;;;;;;;2.42;1.15;;;9.90;99.90;;;;;;5036964;28;20067;-66
2022/11/17 04:08:22;;;;;;;3.88;1.60;;;9.90;99.90;;;;;;5052158;28;20494;-66
2022/11/17 04:16:16;;;;;;;2.35;1.08;;;9.70;99.90;;;;;;5037796;28;20059;-66
2022/11/17 04:18:41;;;;;;;6.05;1.52;;;9.60;99.90;;;;;;5046920;28;20781;-66
2022/11/17 04:21:07;;;;;;;1.75;1.20;;;9.60;99.90;;;;;;5039020;28;20388;-66
2022/11/17 04:23:33;;;;;;;3.58;1.10;;;9.50;99.90;;;;;;5044867;28;20190;-66
2022/11/17 04:28:48;;;;;;;5.57;1.80;;;9.60;99.90;;;;;;5025856;28;20105;-67
2022/11/17 04:31:30;;;;;;;4.40;0.93;;;9.70;99.90;;;;;;5038631;28;20029;-66
2022/11/17 04:34:02;;;;;;;4.15;1.15;;;9.70;99.90;;;;;;5032901;28;20022;-66
2022/11/17 04:36:30;;;;;;;3.42;0.93;;;9.60;99.90;;;;;;5038161;28;20025;-66
2022/11/17 04:38:57;;;;;;;3.17;1.25;;;9.60;99.90;;;;;;5037072;28;20066;-66
2022/11/17 04:44:11;;;;;;;3.83;1.15;;;9.60;99.90;;;;;;5034766;28;20086;-66
2022/11/17 04:46:37;;;;;;;0.98;0.95;;;9.50;99.90;;;;;;5040059;28;20021;-66
2022/11/17 04:49:04;;;;;;;4.60;1.30;;;9.50;99.90;;;;;;5034818;28;20017;-66
2022/11/17 04:51:30;;;;;;;2.50;1.00;;;9.50;99.90;;;;;;5027711;28;20025;-66
2022/11/17 04:53:56;;;;;;;3.17;1.15;;;9.60;99.90;;;;;;5031659;28;20033;-66
2022/11/17 04:56:23;;;;;;;3.58;1.05;;;9.60;99.90;;;;;;5032153;28;20035;-66
2022/11/17 04:58:49;;;;;;;4.07;1.25;;;9.60;99.90;;;;;;5030982;28;20402;-66
2022/11/17 05:01:17;;;;;;;3.00;1.25;;;9.60;99.90;;;;;;5030665;28;20032;-66
2022/11/17 05:03:48;;;;;;;1.65;0.90;;;9.60;99.90;;;;;;5046687;28;20722;-66
2022/11/17 05:06:21;;;;;;;9.10;1.30;;;9.60;99.90;;;;;;5032161;28;20450;-68
2022/11/17 05:08:48;;;;;;;4.68;1.05;;;9.60;99.90;;;;;;5028927;28;20033;-66
2022/11/17 05:13:59;;;;;;;2.65;1.20;;;9.70;99.90;;;;;;5040454;28;20032;-67
2022/11/17 05:19:17;;;;;;;4.88;1.02;;;9.80;99.90;;;;;;5046063;28;20071;-66
2022/11/17 05:21:43;;;;;;;5.13;1.25;;;9.80;99.90;;;;;;5034036;28;20525;-66
2022/11/17 05:24:09;;;;;;;4.90;1.30;;;9.80;99.90;;;;;;5044666;28;20029;-66
2022/11/17 05:26:36;;;;;;;3.83;1.13;;;9.90;99.90;;;;;;5038734;28;20044;-66
2022/11/17 05:29:04;;;;;;;4.30;1.20;;;9.90;99.90;;;;;;5029479;28;20048;-66
2022/11/17 05:31:30;;;;;;;3.33;1.13;;;9.90;99.90;;;;;;5037126;28;20390;-66
2022/11/17 05:33:56;;;;;;;2.45;1.00;;;9.90;99.90;;;;;;5044638;28;20029;-66
2022/11/17 05:36:23;;;;;;;3.70;1.92;;;9.90;99.90;;;;;;5040531;28;20024;-66
2022/11/17 05:38:49;;;;;;;4.65;1.52;;;10.00;99.90;;;;;;5028122;28;20444;-66
2022/11/17 05:41:16;;;;;;;8.15;1.80;;;10.00;99.90;;;;;;5037234;28;20100;-66
2022/11/17 05:43:42;;;;;;;3.08;1.13;;;10.00;99.90;;;;;;5034477;28;20045;-66
2022/11/17 05:46:07;;;;;;;6.00;1.75;;;10.10;99.90;;;;;;5038134;28;20041;-66
2022/11/17 05:48:33;;;;;;;2.38;1.00;;;10.10;99.90;;;;;;5038140;28;20040;-66
2022/11/17 05:50:59;;;;;;;1.73;1.10;;;10.10;99.90;;;;;;5048101;28;20017;-66
2022/11/17 05:53:26;;;;;;;10.35;1.73;;;10.10;99.90;;;;;;5042351;28;20073;-66
2022/11/17 05:56:29;;;;;;;1.33;0.90;;;10.10;99.90;;;;;;5034161;28;20085;-65
2022/11/17 05:59:17;;;;;;;2.03;1.02;;;10.10;99.90;;;;;;5024576;28;20025;-66
2022/11/17 06:01:49;;;;;;;4.95;1.45;;;10.10;99.90;;;;;;5035674;28;20110;-68
2022/11/17 06:04:18;;;;;;;2.88;1.08;;;10.10;99.90;;;;;;5035581;28;20029;-66
2022/11/17 06:06:45;;;;;;;1.75;0.80;;;10.10;99.90;;;;;;5037584;28;20025;-66
2022/11/17 06:09:11;;;;;;;4.57;2.42;;;10.10;99.90;;;;;;5040817;28;20371;-66
2022/11/17 06:11:36;;;;;;;2.50;1.10;;;10.00;99.90;;;;;;5047865;28;20050;-67
2022/11/17 06:14:02;;;;;;;4.65;1.48;;;10.10;99.90;;;;;;5025919;28;20033;-66
2022/11/17 06:16:31;;;;;;;1.92;1.05;;;10.00;99.90;;;;;;5040119;28;20033;-66
2022/11/17 06:19:04;;;;;;;3.25;1.00;;;10.00;99.90;;;;;;5019675;28;20454;-65
2022/11/17 06:21:29;;;;;;;6.70;1.10;;;10.00;99.90;;;;;;5041040;28;20100;-66
2022/11/17 06:23:55;;;;;;;5.30;1.20;;;10.00;99.90;;;;;;5042859;28;20426;-67
2022/11/17 06:26:21;;;;;;;5.88;1.15;;;10.00;99.90;;;;;;5042271;28;20104;-66
2022/11/17 06:28:48;;;;;;;2.95;1.15;;;10.00;99.90;;;;;;5017288;28;20034;-66
2022/11/17 06:31:15;;;;;;;5.18;1.13;;;10.00;99.90;;;;;;5032635;28;20040;-66
2022/11/17 06:33:41;;;;;;;4.88;1.00;;;9.90;99.90;;;;;;5038571;28;20036;-67
2022/11/17 06:36:07;;;;;;;2.00;1.15;;;9.90;99.90;;;;;;5048761;28;20100;-67
2022/11/17 06:38:34;;;;;;;2.13;1.30;;;9.90;99.90;;;;;;5024454;28;20833;-66
2022/11/17 06:41:01;;;;;;;1.52;1.25;;;9.90;99.90;;;;;;5035335;28;20025;-66
2022/11/17 06:43:27;;;;;;;5.72;1.55;;;9.90;99.90;;;;;;5026758;28;20076;-66
2022/11/17 06:45:52;;;;;;;5.25;2.22;;;9.90;99.90;;;;;;5033988;28;20037;-67
2022/11/17 06:48:25;;;;;;;6.40;2.42;;;9.80;99.90;;;;;;5043630;28;20021;-67
2022/11/17 06:50:53;;;;;;;5.80;1.90;;;9.80;99.90;;;;;;5028237;28;20029;-67
2022/11/17 06:53:19;;;;;;;5.07;1.30;;;9.80;99.90;;;;;;5047877;28;20260;-67
2022/11/17 06:58:34;;;;;;;4.28;1.00;;;9.80;99.90;;;;;;5048424;28;20086;-67
2022/11/17 07:01:11;;;;;;;1.65;1.10;;;9.80;99.90;;;;;;5025960;28;21960;-67
2022/11/17 07:03:39;;;;;;;1.80;1.25;;;9.80;99.90;;;;;;5033847;28;20402;-67
2022/11/17 07:06:06;;;;;;;2.80;1.05;;;9.80;99.90;;;;;;5027638;28;20634;-67
2022/11/17 07:08:32;;;;;;;14.95;7.40;;;9.80;99.90;;;;;;5048936;28;20040;-67
2022/11/17 07:11:06;;;;;;;7.28;2.35;;;9.80;99.90;;;;;;5041490;28;20032;-67
2022/11/17 07:13:32;;;;;;;;;;;9.80;99.90;;;;;;5034614;28;20455;-67
2022/11/17 07:16:09;;;;;;;3.50;1.67;;;9.80;99.90;;;;;;5027098;28;20028;-67
2022/11/17 07:18:35;;;;;;;4.97;1.30;;;9.80;99.90;;;;;;5046677;28;20029;-67
2022/11/17 07:21:06;;;;;;;2.92;1.63;;;9.90;99.90;;;;;;5037717;28;20495;-67
2022/11/17 07:23:33;;;;;;;9.27;3.72;;;9.80;99.90;;;;;;5040932;28;20064;-67
2022/11/17 07:26:00;;;;;;;6.63;3.58;;;9.80;99.90;;;;;;5043128;28;20029;-66
2022/11/17 07:28:26;;;;;;;25.25;13.57;;;9.80;99.90;;;;;;5029252;28;20041;-66
2022/11/17 07:30:52;;;;;;;10.30;3.50;;;9.70;99.90;;;;;;5029575;28;20025;-64
2022/11/17 07:33:18;;;;;;;7.25;1.75;;;9.70;99.90;;;;;;5035163;28;20845;-66
2022/11/17 07:35:44;;;;;;;20.20;8.85;;;9.60;99.90;;;;;;5039120;28;20517;-66
2022/11/17 07:38:10;;;;;;;12.63;5.57;;;9.60;99.90;;;;;;5029566;28;20057;-66
2022/11/17 07:40:35;;;;;;;4.03;2.63;;;9.60;99.90;;;;;;5027342;28;20482;-66
2022/11/17 07:43:01;;;;;;;2.72;1.77;;;9.60;99.90;;;;;;5038546;28;20029;-66
2022/11/17 07:45:27;;;;;;;4.32;3.03;;;9.60;99.90;;;;;;5026350;28;20107;-66
2022/11/17 07:48:00;;;;;;;8.25;2.67;;;9.60;99.90;;;;;;5039198;28;20080;-66
2022/11/17 07:50:26;;;;;;;2.15;0.70;;;9.60;99.90;;;;;;5031120;28;20376;-66
2022/11/17 07:52:53;;;;;;;3.47;1.40;;;9.60;99.90;;;;;;5050060;28;20021;-65
2022/11/17 07:55:19;;;;;;;5.85;1.88;;;9.70;99.90;;;;;;5030138;28;20030;-66
2022/11/17 07:57:45;;;;;;;6.13;1.10;;;9.70;99.90;;;;;;5021669;28;20028;-66
2022/11/17 08:00:12;;;;;;;2.25;0.80;;;9.70;99.90;;;;;;5033117;28;20029;-66
2022/11/17 08:02:38;;;;;;;1.92;1.05;;;9.70;99.90;;;;;;5022306;28;20096;-66
2022/11/17 08:05:04;;;;;;;1.02;0.75;;;9.70;99.90;;;;;;5047386;28;20059;-66
2022/11/17 08:07:29;;;;;;;3.70;1.05;;;9.70;99.90;;;;;;5032862;28;20472;-66
2022/11/17 08:09:55;;;;;;;2.90;0.90;;;9.80;99.90;;;;;;5029869;28;20025;-66
2022/11/17 08:12:21;;;;;;;1.85;0.80;;;9.80;99.90;;;;;;5015351;28;20062;-66
2022/11/17 08:14:46;;;;;;;2.45;1.15;;;9.70;99.90;;;;;;5019973;28;20394;-66
2022/11/17 08:17:12;;;;;;;4.07;1.23;;;9.80;99.90;;;;;;5044622;28;20107;-66
2022/11/17 08:19:37;;;;;;;4.43;1.17;;;9.80;99.90;;;;;;5036144;28;20032;-66
2022/11/17 08:22:03;;;;;;;4.25;1.42;;;9.80;99.90;;;;;;5046381;28;20079;-67
2022/11/17 08:24:28;;;;;;;3.78;0.85;;;9.80;99.90;;;;;;5045157;28;20040;-66
2022/11/17 08:26:54;;;;;;;6.13;1.38;;;9.90;99.90;;;;;;5033755;28;20047;-66
2022/11/17 08:29:20;;;;;;;2.28;1.23;;;9.90;99.90;;;;;;5025200;28;20056;-66
2022/11/17 08:31:46;;;;;;;2.55;1.33;;;9.90;99.90;;;;;;5043577;28;20489;-66
2022/11/17 08:34:12;;;;;;;3.05;0.80;;;10.00;99.90;;;;;;5049636;28;20448;-66
2022/11/17 08:36:38;;;;;;;3.15;1.48;;;10.00;99.90;;;;;;5043855;28;20025;-65
2022/11/17 08:39:05;;;;;;;3.30;1.10;;;10.00;99.90;;;;;;5042357;28;20025;-66
2022/11/17 08:41:30;;;;;;;6.85;1.77;;;10.10;99.90;;;;;;5022789;28;20489;-66
2022/11/17 08:43:56;;;;;;;3.13;1.38;;;10.10;99.90;;;;;;5042258;28;20036;-65
2022/11/17 08:46:22;;;;;;;4.43;1.23;;;10.10;99.90;;;;;;5036503;28;20040;-66
2022/11/17 08:48:47;;;;;;;3.08;0.70;;;10.10;99.90;;;;;;5044558;28;20033;-66
2022/11/17 08:51:13;;;;;;;2.53;0.75;;;10.10;99.90;;;;;;5038141;28;20280;-66
2022/11/17 08:53:39;;;;;;;7.82;1.30;;;10.20;99.90;;;;;;5036058;28;20028;-66
2022/11/17 08:56:07;;;;;;;3.47;1.20;;;10.20;99.90;;;;;;5020020;28;20427;-66
2022/11/17 08:58:41;;;;;;;5.65;1.35;;;10.30;99.90;;;;;;5028459;28;20040;-66
2022/11/17 09:01:09;;;;;;;5.90;1.92;;;10.30;99.90;;;;;;5038523;28;20024;-66
2022/11/17 09:03:34;;;;;;;6.38;1.60;;;10.30;99.90;;;;;;5027267;28;20021;-67
2022/11/17 09:06:01;;;;;;;3.97;1.30;;;10.30;99.90;;;;;;5038548;28;20032;-66
2022/11/17 09:08:27;;;;;;;4.32;1.20;;;10.40;99.90;;;;;;5042306;28;20869;-64
2022/11/17 09:10:52;;;;;;;4.32;1.00;;;10.40;99.90;;;;;;5030220;28;20017;-66
2022/11/17 09:13:18;;;;;;;3.58;0.75;;;10.50;99.90;;;;;;5049270;28;20463;-66
2022/11/17 09:15:43;;;;;;;6.97;2.25;;;10.60;99.90;;;;;;5036395;28;20120;-66
2022/11/17 09:18:09;;;;;;;2.13;0.82;;;10.70;99.90;;;;;;5048228;28;20375;-67
2022/11/17 09:20:35;;;;;;;5.35;0.95;;;10.90;99.90;;;;;;5036103;28;20526;-65
2022/11/17 09:23:01;;;;;;;2.50;1.63;;;11.00;99.90;;;;;;5031715;28;20501;-66
2022/11/17 09:25:27;;;;;;;3.25;1.20;;;11.20;99.90;;;;;;5027104;28;20034;-66
2022/11/17 09:27:53;;;;;;;1.25;0.70;;;11.30;99.90;;;;;;5026527;28;20025;-66
2022/11/17 09:30:21;;;;;;;2.63;0.68;;;11.60;99.90;;;;;;5049388;28;20036;-66
2022/11/17 09:32:50;;;;;;;1.92;1.25;;;11.80;99.90;;;;;;5040831;28;20024;-66
2022/11/17 09:35:17;;;;;;;4.88;1.40;;;11.90;99.90;;;;;;5049366;28;20493;-66
2022/11/17 09:37:43;;;;;;;4.70;1.27;;;12.10;99.90;;;;;;5033275;28;20112;-66
2022/11/17 09:40:15;;;;;;;2.10;0.90;;;12.10;99.90;;;;;;5037214;28;20029;-66
2022/11/17 09:42:41;;;;;;;5.85;1.30;;;12.10;99.90;;;;;;5043089;28;20439;-66
2022/11/17 09:45:19;;;;;;;5.85;1.27;;;12.30;99.90;;;;;;5038570;28;20053;-66
2022/11/17 09:48:13;;;;;;;4.50;1.23;;;12.40;99.90;;;;;;5032912;28;20025;-66
2022/11/17 09:50:43;;;;;;;3.72;2.55;;;12.30;99.90;;;;;;5031815;28;20503;-66
2022/11/17 09:53:39;;;;;;;3.35;1.25;;;12.30;99.90;;;;;;5027841;28;20034;-66
2022/11/17 09:56:08;;;;;;;4.35;2.55;;;12.10;99.90;;;;;;5023497;28;20057;-66
2022/11/17 09:58:44;;;;;;;3.33;1.70;;;11.90;99.90;;;;;;5032404;28;20013;-66
2022/11/17 10:01:20;;;;;;;3.08;1.52;;;11.80;99.90;;;;;;5037383;28;20079;-64
2022/11/17 10:03:48;;;;;;;4.13;2.22;;;11.70;99.90;;;;;;5038314;28;20040;-64
2022/11/17 10:06:22;;;;;;;5.47;2.20;;;11.70;99.90;;;;;;5040880;28;20116;-64
2022/11/17 10:08:54;;;;;;;4.07;1.10;;;11.60;99.90;;;;;;5031079;28;20043;-64
2022/11/17 10:11:32;;;;;;;2.22;1.20;;;11.60;99.90;;;;;;5033390;28;20087;-64
2022/11/17 10:14:00;;;;;;;2.70;0.98;;;11.60;99.90;;;;;;5033566;28;20021;-63
2022/11/17 10:16:26;;;;;;;4.45;1.58;;;11.60;99.90;;;;;;5019901;28;20036;-65
2022/11/17 10:18:51;;;;;;;3.00;1.10;;;11.70;99.90;;;;;;5021783;28;20026;-64
2022/11/17 10:21:17;;;;;;;4.68;1.23;;;11.70;99.90;;;;;;5023740;28;20128;-65
2022/11/17 10:23:48;;;;;;;4.43;1.20;;;11.70;99.90;;;;;;5015749;28;20483;-65
2022/11/17 10:26:15;;;;;;;3.25;1.10;;;11.70;99.90;;;;;;5025258;28;20033;-64
2022/11/17 10:28:40;;;;;;;3.50;1.00;;;11.70;99.90;;;;;;5020245;28;20037;-65
2022/11/17 10:31:15;;;;;;;3.75;1.60;;;11.70;99.90;;;;;;5030585;28;20112;-65
2022/11/17 10:33:46;;;;;;;4.00;1.80;;;11.70;99.90;;;;;;5024279;28;20076;-65
2022/11/17 10:36:22;;;;;;;2.85;1.45;;;11.70;99.90;;;;;;5024894;28;20060;-65
2022/11/17 10:38:50;;;;;;;10.35;1.65;;;11.80;99.90;;;;;;5024104;28;20025;-65
2022/11/17 10:41:23;;;;;;;5.80;1.42;;;11.90;99.90;;;;;;5019603;28;20025;-65
2022/11/17 10:43:57;;;;;;;2.58;0.77;;;11.90;99.90;;;;;;5029389;28;20029;-65
2022/11/17 10:46:23;;;;;;;3.65;1.00;;;11.90;99.90;;;;;;5033133;28;20120;-64
2022/11/17 10:49:00;;;;;;;4.88;1.88;;;12.00;99.90;;;;;;5041902;28;20048;-63
2022/11/17 10:51:27;;;;;;;2.92;1.30;;;12.10;99.90;;;;;;5030579;28;20107;-64
2022/11/17 10:54:08;;;;;;;4.05;1.60;;;12.10;99.90;;;;;;5040101;28;20028;-65
2022/11/17 10:56:40;;;;;;;7.15;2.75;;;12.10;99.90;;;;;;5046618;28;20410;-64
2022/11/17 10:59:09;;;;;;;7.10;2.92;;;12.00;99.90;;;;;;5022533;28;20025;-64
2022/11/17 11:01:37;;;;;;;10.93;5.03;;;12.10;99.90;;;;;;5032677;28;20029;-66
2022/11/17 11:04:04;;;;;;;17.15;6.40;;;12.00;99.90;;;;;;5037413;28;20426;-65
2022/11/17 11:06:32;;;;;;;1.92;0.98;;;12.00;99.90;;;;;;5040395;28;20021;-65
2022/11/17 11:09:10;;;;;;;3.03;1.40;;;12.00;99.90;;;;;;5020085;28;20030;-64
2022/11/17 11:11:47;;;;;;;5.50;2.88;;;12.00;99.90;;;;;;5044389;28;20642;-64
2022/11/17 11:14:16;;;;;;;2.90;1.55;;;12.10;99.90;;;;;;5038820;28;20028;-64
2022/11/17 11:16:45;;;;;;;4.68;1.50;;;12.00;99.90;;;;;;5037455;28;20027;-63
2022/11/17 11:19:14;;;;;;;6.03;2.60;;;12.00;99.90;;;;;;5036411;28;20758;-64
2022/11/17 11:21:42;;;;;;;5.50;1.52;;;12.00;99.90;;;;;;5028352;28;20026;-63
2022/11/17 11:24:30;;;;;;;5.57;1.40;;;12.00;99.90;;;;;;5024073;28;20025;-64
2022/11/17 11:27:31;;;;;;;9.10;5.10;;;12.10;99.90;;;;;;5034149;28;20506;-63
2022/11/17 11:30:05;;;;;;;16.17;7.22;;;12.10;99.90;;;;;;5006740;28;20628;-63
2022/11/17 11:32:52;;;;;;;15.02;6.85;;;12.10;99.90;;;;;;5029794;28;20026;-64
2022/11/17 11:35:36;;;;;;;14.73;6.00;;;12.10;99.90;;;;;;5023535;28;20030;-63
2022/11/17 11:38:14;;;;;;;23.35;9.75;;;12.10;99.90;;;;;;4984700;28;20046;-64
2022/11/17 11:40:44;;;;;;;30.60;13.18;;;12.10;99.90;;;;;;5000089;28;20037;-64
2022/11/17 11:43:22;;;;;;;19.70;9.13;;;12.00;99.90;;;;;;5023135;28;20108;-64
2022/11/17 11:46:01;;;;;;;13.35;6.60;;;11.90;99.90;;;;;;5024731;28;20048;-64
2022/11/17 11:48:34;;;;;;;5.13;3.13;;;12.00;99.90;;;;;;5047361;28;20150;-63
2022/11/17 11:51:09;;;;;;;5.20;2.75;;;12.00;99.90;;;;;;5035866;28;20032;-63
2022/11/17 11:53:55;;;;;;;5.18;3.08;;;12.00;99.90;;;;;;5039025;28;20029;-63
2022/11/17 11:56:35;;;;;;;1.90;1.20;;;12.10;99.90;;;;;;5028452;28;20589;-63
2022/11/17 11:59:19;;;;;;;7.35;2.50;;;12.10;99.90;;;;;;5026839;28;20682;-62
2022/11/17 12:01:54;;;;;;;;;;;12.10;99.90;;;;;;5029368;28;20033;-64
2022/11/17 12:04:38;;;;;;;7.80;4.47;;;12.20;99.90;;;;;;5021067;28;19956;-64
2022/11/17 12:07:12;;;;;;;3.30;1.65;;;12.10;99.90;;;;;;5035555;28;20060;-64
2022/11/17 12:10:04;;;;;;;3.53;1.80;;;12.20;99.90;;;;;;5015665;28;20029;-64
2022/11/17 12:12:43;;;;;;;2.15;1.50;;;12.30;99.90;;;;;;5036260;28;20150;-63
2022/11/17 12:15:17;;;;;;;2.28;1.13;;;12.30;99.90;;;;;;5012693;28;20032;-63
2022/11/17 12:17:59;;;;;;;2.28;1.73;;;12.30;99.90;;;;;;5008906;28;20880;-64
2022/11/17 12:20:37;;;;;;;4.40;1.58;;;12.20;99.90;;;;;;5027031;28;20025;-64
2022/11/17 12:23:30;;;;;;;3.22;1.10;;;12.20;99.90;;;;;;5038011;28;20017;-64
2022/11/17 12:25:57;;;;;;;1.80;0.85;;;12.30;99.90;;;;;;5041158;28;20021;-64
2022/11/17 12:28:34;;;;;;;4.03;0.77;;;12.30;99.90;;;;;;5011772;28;20029;-64
2022/11/17 12:31:01;;;;;;;2.47;0.80;;;12.30;99.90;;;;;;5025541;28;20033;-64
2022/11/17 12:34:08;;;;;;;2.10;1.55;;;12.30;99.90;;;;;;5024018;28;20380;-64
2022/11/17 12:36:34;;;;;;;1.25;0.65;;;12.20;99.90;;;;;;5035822;28;20025;-63
2022/11/17 12:39:38;;;;;;;2.30;0.70;;;12.20;99.90;;;;;;5037015;28;20045;-64
2022/11/17 12:42:05;;;;;;;0.95;0.85;;;12.20;99.90;;;;;;5024931;28;20034;-64
2022/11/17 12:44:34;;;;;;;1.60;0.98;;;12.20;99.90;;;;;;5031801;28;20693;-62
2022/11/17 12:47:18;;;;;;;3.05;1.08;;;12.30;99.90;;;;;;5027532;28;20029;-63
2022/11/17 12:50:08;;;;;;;2.25;1.15;;;12.20;99.90;;;;;;5036993;28;20029;-64
2022/11/17 12:52:42;;;;;;;3.85;0.95;;;12.20;99.90;;;;;;5035077;28;20020;-64
2022/11/17 12:55:26;;;;;;;1.85;1.00;;;12.20;99.90;;;;;;5046762;28;20425;-63
2022/11/17 12:58:05;;;;;;;4.00;1.30;;;12.30;99.90;;;;;;5032472;28;20114;-64
2022/11/17 13:00:40;;;;;;;2.33;1.05;;;12.30;99.90;;;;;;5032628;28;20121;-64
2022/11/17 13:03:20;;;;;;;1.13;0.90;;;12.40;99.90;;;;;;5037411;28;20673;-64
2022/11/17 13:06:06;;;;;;;2.55;0.77;;;12.60;99.90;;;;;;5017157;28;20030;-64
2022/11/17 13:08:31;;;;;;;3.83;1.17;;;12.90;99.90;;;;;;5029776;28;20045;-64
2022/11/17 13:11:06;;;;;;;0.93;0.73;;;13.00;99.90;;;;;;5039141;28;20063;-64
2022/11/17 13:13:32;;;;;;;2.10;0.80;;;13.10;99.90;;;;;;5041409;28;20021;-63
2022/11/17 13:16:00;;;;;;;2.92;0.57;;;13.00;99.90;;;;;;5039970;28;20030;-64
2022/11/17 13:18:36;;;;;;;4.22;1.13;;;13.00;99.90;;;;;;5044718;28;20033;-64
2022/11/17 13:21:03;;;;;;;2.90;0.85;;;12.90;99.90;;;;;;5042611;28;20029;-64
2022/11/17 13:23:30;;;;;;;6.90;2.55;;;12.80;99.90;;;;;;5022053;28;20068;-64
2022/11/17 13:26:17;;;;;;;5.32;1.30;;;12.70;99.90;;;;;;5015816;28;20049;-64
2022/11/17 13:28:43;;;;;;;1.08;0.70;;;12.60;99.90;;;;;;5005463;28;20104;-63
2022/11/17 13:31:21;;;;;;;5.55;1.92;;;12.50;99.90;;;;;;5021349;28;20100;-64
2022/11/17 13:34:15;;;;;;;2.58;1.02;;;12.50;99.90;;;;;;5018497;28;20028;-64
2022/11/17 13:36:58;;;;;;;2.50;0.98;;;12.40;99.90;;;;;;5017141;28;20152;-64
2022/11/17 13:39:25;;;;;;;2.25;0.90;;;12.30;99.90;;;;;;5018958;28;20064;-64
2022/11/17 13:41:51;;;;;;;1.88;1.50;;;12.30;99.90;;;;;;5032148;28;20021;-64